Time;durP1;ratioP1;P1;durP2;ratioP2;P2;SDS_P1;SDS_P2;PMS_P1;PMS_P2;Temp;Humidity;BMP_temperature;BMP_pressure;BME280_temperature;BME280_humidity;BME280_pressure;Samples;Min_cycle;Max_cycle;Signal;HPM_P1;HPM_P2
2022/11/14 00:01:16;;;;;;;0.00;0.00;;;;;;;;;;5096718;28;20693;-75
2022/11/14 00:03:45;;;;;;;0.00;0.00;;;;;;;;;;5096837;28;20256;-76
2022/11/14 00:06:13;;;;;;;0.00;0.00;;;;;;;;;;5096832;28;20675;-76
2022/11/14 00:08:42;;;;;;;0.00;0.00;;;;;;;;;;5096898;28;20318;-76
2022/11/14 00:11:10;;;;;;;0.00;0.00;;;;;;;;;;5097049;28;20629;-76
2022/11/14 00:13:40;;;;;;;0.00;0.00;;;;;;;;;;5096558;28;20278;-76
2022/11/14 00:16:08;;;;;;;0.00;0.00;;;;;;;;;;5096588;28;20264;-76
2022/11/14 00:18:37;;;;;;;0.00;0.00;;;;;;;;;;5096433;28;20686;-76
2022/11/14 00:21:05;;;;;;;0.00;0.00;;;;;;;;;;5095951;28;20231;-76
2022/11/14 00:23:34;;;;;;;0.00;0.00;;;;;;;;;;5096407;28;20257;-76
2022/11/14 00:26:02;;;;;;;0.00;0.00;;;;;;;;;;5096567;28;20243;-76
2022/11/14 00:28:31;;;;;;;0.00;0.00;;;;;;;;;;5096143;28;20285;-76
2022/11/14 00:31:01;;;;;;;0.00;0.00;;;;;;;;;;5096565;28;20568;-76
2022/11/14 00:33:30;;;;;;;0.00;0.00;;;;;;;;;;5096207;28;20653;-76
2022/11/14 00:35:58;;;;;;;0.00;0.00;;;;;;;;;;5096039;28;20309;-76
2022/11/14 00:38:26;;;;;;;0.00;0.00;;;;;;;;;;5096321;28;20631;-76
2022/11/14 00:40:55;;;;;;;0.00;0.00;;;;;;;;;;5096085;28;20213;-76
2022/11/14 00:43:24;;;;;;;0.00;0.00;;;;;;;;;;5096443;28;20222;-77
2022/11/14 00:45:52;;;;;;;0.00;0.00;;;;;;;;;;5095802;28;20227;-76
2022/11/14 00:48:22;;;;;;;0.00;0.00;;;;;;;;;;5096229;28;20237;-76
2022/11/14 00:50:51;;;;;;;0.00;0.00;;;;;;;;;;5095983;28;20288;-76
2022/11/14 00:53:19;;;;;;;0.00;0.00;;;;;;;;;;5095340;28;20316;-76
2022/11/14 00:55:48;;;;;;;0.00;0.00;;;;;;;;;;5095865;28;20260;-76
2022/11/14 00:58:16;;;;;;;0.00;0.00;;;;;;;;;;5095007;28;20241;-76
2022/11/14 01:00:45;;;;;;;0.00;0.00;;;;;;;;;;5096185;28;20209;-76
2022/11/14 01:03:13;;;;;;;0.00;0.00;;;;;;;;;;5095505;28;20214;-76
2022/11/14 01:05:44;;;;;;;0.00;0.00;;;;;;;;;;5095254;28;20194;-76
2022/11/14 01:08:12;;;;;;;0.00;0.00;;;;;;;;;;5095114;28;20194;-76
2022/11/14 01:10:41;;;;;;;0.00;0.00;;;;;;;;;;5095405;28;20237;-76
2022/11/14 01:13:09;;;;;;;0.00;0.00;;;;;;;;;;5095633;28;20261;-76
2022/11/14 01:15:40;;;;;;;0.10;0.10;;;;;;;;;;5095005;28;20269;-76
2022/11/14 01:18:08;;;;;;;0.00;0.00;;;;;;;;;;5095666;28;20588;-76
2022/11/14 01:20:39;;;;;;;0.00;0.00;;;;;;;;;;5095305;28;20567;-76
2022/11/14 01:23:09;;;;;;;0.00;0.00;;;;;;;;;;5095035;28;20622;-76
2022/11/14 01:25:38;;;;;;;0.00;0.00;;;;;;;;;;5095285;28;20619;-76
2022/11/14 01:28:07;;;;;;;0.00;0.00;;;;;;;;;;5094970;28;20194;-76
2022/11/14 01:30:36;;;;;;;0.00;0.00;;;;;;;;;;5094975;28;20609;-76
2022/11/14 01:33:05;;;;;;;0.00;0.00;;;;;;;;;;5095195;28;20225;-76
2022/11/14 01:35:33;;;;;;;0.00;0.00;;;;;;;;;;5094757;28;20201;-76
2022/11/14 01:38:02;;;;;;;0.00;0.00;;;;;;;;;;5095203;28;20218;-76
2022/11/14 01:40:32;;;;;;;0.00;0.00;;;;;;;;;;5094646;28;20241;-76
2022/11/14 01:43:21;;;;;;;0.00;0.00;;;;;;;;;;5095091;28;20611;-76
2022/11/14 01:45:52;;;;;;;0.00;0.00;;;;;;;;;;5094592;28;20191;-76
2022/11/14 01:48:22;;;;;;;0.00;0.00;;;;;;;;;;5094545;28;20292;-76
2022/11/14 01:50:54;;;;;;;0.00;0.00;;;;;;;;;;5094675;28;20197;-76
2022/11/14 01:53:23;;;;;;;0.00;0.00;;;;;;;;;;5094707;28;20332;-77
2022/11/14 01:55:53;;;;;;;0.00;0.00;;;;;;;;;;5095022;28;20284;-77
2022/11/14 01:58:22;;;;;;;0.00;0.00;;;;;;;;;;5095078;28;20285;-77
2022/11/14 02:00:51;;;;;;;0.00;0.00;;;;;;;;;;5094483;28;20202;-76
2022/11/14 02:03:20;;;;;;;0.00;0.00;;;;;;;;;;5094759;28;20249;-76
2022/11/14 02:05:49;;;;;;;0.00;0.00;;;;;;;;;;5095007;28;20205;-77
2022/11/14 02:08:18;;;;;;;0.00;0.00;;;;;;;;;;5094561;28;20228;-76
2022/11/14 02:10:47;;;;;;;0.00;0.00;;;;;;;;;;5094756;28;20569;-77
2022/11/14 02:13:16;;;;;;;0.00;0.00;;;;;;;;;;5094386;28;20221;-76
2022/11/14 02:15:45;;;;;;;0.00;0.00;;;;;;;;;;5094093;28;20691;-76
2022/11/14 02:18:13;;;;;;;0.00;0.00;;;;;;;;;;5093591;28;20224;-77
2022/11/14 02:20:43;;;;;;;0.00;0.00;;;;;;;;;;5094626;28;20233;-76
2022/11/14 02:23:12;;;;;;;0.00;0.00;;;;;;;;;;5094362;28;20709;-76
2022/11/14 02:25:41;;;;;;;0.00;0.00;;;;;;;;;;5094278;28;20292;-77
2022/11/14 02:28:10;;;;;;;0.00;0.00;;;;;;;;;;5094570;28;20198;-76
2022/11/14 02:30:39;;;;;;;0.00;0.00;;;;;;;;;;5094619;28;20547;-76
2022/11/14 02:33:07;;;;;;;0.00;0.00;;;;;;;;;;5094166;28;20260;-74
2022/11/14 02:35:39;;;;;;;0.00;0.00;;;;;;;;;;5094018;28;20182;-77
2022/11/14 02:38:09;;;;;;;0.00;0.00;;;;;;;;;;5094254;28;20649;-76
2022/11/14 02:40:37;;;;;;;0.00;0.00;;;;;;;;;;5094444;28;20631;-76
2022/11/14 02:43:06;;;;;;;0.00;0.00;;;;;;;;;;5094188;28;20308;-76
2022/11/14 02:45:34;;;;;;;0.00;0.00;;;;;;;;;;5093956;28;20658;-76
2022/11/14 02:48:03;;;;;;;0.00;0.00;;;;;;;;;;5093883;28;20205;-76
2022/11/14 02:50:31;;;;;;;0.00;0.00;;;;;;;;;;5093389;28;20301;-76
2022/11/14 02:53:00;;;;;;;0.00;0.00;;;;;;;;;;5094074;28;20645;-75
2022/11/14 02:55:30;;;;;;;0.00;0.00;;;;;;;;;;5094113;28;20292;-76
2022/11/14 02:57:58;;;;;;;0.00;0.00;;;;;;;;;;5094074;28;20706;-75
2022/11/14 03:00:26;;;;;;;0.00;0.00;;;;;;;;;;5093377;28;20248;-76
2022/11/14 03:02:55;;;;;;;0.00;0.00;;;;;;;;;;5094094;28;20291;-75
2022/11/14 03:05:24;;;;;;;0.00;0.00;;;;;;;;;;5094064;28;20289;-75
2022/11/14 03:07:54;;;;;;;0.00;0.00;;;;;;;;;;5093868;28;20232;-76
2022/11/14 03:10:23;;;;;;;0.00;0.00;;;;;;;;;;5094156;28;20186;-76
2022/11/14 03:12:55;;;;;;;0.00;0.00;;;;;;;;;;5094003;28;20309;-76
2022/11/14 03:15:24;;;;;;;0.00;0.00;;;;;;;;;;5094165;28;20244;-76
2022/11/14 03:17:52;;;;;;;0.00;0.00;;;;;;;;;;5093664;28;20249;-76
2022/11/14 03:20:21;;;;;;;0.00;0.00;;;;;;;;;;5093723;28;20279;-76
2022/11/14 03:22:49;;;;;;;0.00;0.00;;;;;;;;;;5092890;28;20308;-75
2022/11/14 03:25:18;;;;;;;0.00;0.00;;;;;;;;;;5093616;28;20554;-76
2022/11/14 03:27:46;;;;;;;0.00;0.00;;;;;;;;;;5094020;28;20198;-76
2022/11/14 03:30:16;;;;;;;0.00;0.00;;;;;;;;;;5094937;28;20609;-76
2022/11/14 03:32:45;;;;;;;0.00;0.00;;;;;;;;;;5097256;28;20248;-76
2022/11/14 03:35:13;;;;;;;0.00;0.00;;;;;;;;;;5097512;28;20241;-76
2022/11/14 03:37:42;;;;;;;0.00;0.00;;;;;;;;;;5096699;28;20261;-76
2022/11/14 03:40:10;;;;;;;0.00;0.00;;;;;;;;;;5097351;28;20260;-76
2022/11/14 03:42:39;;;;;;;0.00;0.00;;;;;;;;;;5096807;28;20726;-75
2022/11/14 03:45:07;;;;;;;0.00;0.00;;;;;;;;;;5097263;28;20234;-76
2022/11/14 03:47:37;;;;;;;0.00;0.00;;;;;;;;;;5097121;28;20288;-76
2022/11/14 03:50:06;;;;;;;0.00;0.00;;;;;;;;;;5097487;28;20717;-75
2022/11/14 03:52:35;;;;;;;0.00;0.00;;;;;;;;;;5096829;28;20308;-75
2022/11/14 03:55:03;;;;;;;0.00;0.00;;;;;;;;;;5096503;28;20241;-76
2022/11/14 03:57:31;;;;;;;0.00;0.00;;;;;;;;;;5096572;28;20217;-76
2022/11/14 04:00:00;;;;;;;0.00;0.00;;;;;;;;;;5096753;28;20205;-76
2022/11/14 04:02:28;;;;;;;0.00;0.00;;;;;;;;;;5097063;28;20260;-76
2022/11/14 04:04:58;;;;;;;0.00;0.00;;;;;;;;;;5096848;28;20202;-76
2022/11/14 04:07:27;;;;;;;0.00;0.00;;;;;;;;;;5096918;28;20198;-77
2022/11/14 04:09:55;;;;;;;0.00;0.00;;;;;;;;;;5096525;28;20201;-76
2022/11/14 04:12:24;;;;;;;0.00;0.00;;;;;;;;;;5096174;28;20221;-76
2022/11/14 04:14:52;;;;;;;0.00;0.00;;;;;;;;;;5096467;28;20256;-76
2022/11/14 04:17:21;;;;;;;0.00;0.00;;;;;;;;;;5096242;28;20321;-75
2022/11/14 04:19:50;;;;;;;0.00;0.00;;;;;;;;;;5095367;28;20212;-76
2022/11/14 04:22:23;;;;;;;0.00;0.00;;;;;;;;;;5096134;28;20253;-76
2022/11/14 04:24:51;;;;;;;0.00;0.00;;;;;;;;;;5096290;28;20296;-76
2022/11/14 04:27:19;;;;;;;0.00;0.00;;;;;;;;;;5096268;28;20236;-76
2022/11/14 04:29:48;;;;;;;0.00;0.00;;;;;;;;;;5096202;28;20388;-75
2022/11/14 04:32:16;;;;;;;0.00;0.00;;;;;;;;;;5095918;28;20313;-75
2022/11/14 04:34:45;;;;;;;0.00;0.00;;;;;;;;;;5096187;28;20210;-76
2022/11/14 04:37:13;;;;;;;0.00;0.00;;;;;;;;;;5096169;28;20229;-75
2022/11/14 04:39:43;;;;;;;0.00;0.00;;;;;;;;;;5096101;28;20256;-76
2022/11/14 04:42:11;;;;;;;0.00;0.00;;;;;;;;;;5096307;28;20253;-76
2022/11/14 04:44:40;;;;;;;0.00;0.00;;;;;;;;;;5096257;28;20239;-77
2022/11/14 04:47:08;;;;;;;0.00;0.00;;;;;;;;;;5096388;28;20609;-76
2022/11/14 04:49:37;;;;;;;0.00;0.00;;;;;;;;;;5095919;28;20259;-76
2022/11/14 04:52:05;;;;;;;0.00;0.00;;;;;;;;;;5096101;28;20328;-77
2022/11/14 04:54:34;;;;;;;0.00;0.00;;;;;;;;;;5096014;28;20248;-76
2022/11/14 04:57:04;;;;;;;0.00;0.00;;;;;;;;;;5095519;28;20277;-77
2022/11/14 04:59:32;;;;;;;0.00;0.00;;;;;;;;;;5095790;28;20253;-76
2022/11/14 05:02:01;;;;;;;0.00;0.00;;;;;;;;;;5095697;28;20233;-77
2022/11/14 05:04:29;;;;;;;0.00;0.00;;;;;;;;;;5095602;28;20198;-77
2022/11/14 05:06:58;;;;;;;0.00;0.00;;;;;;;;;;5079888;28;20699;-77
2022/11/14 05:09:26;;;;;;;0.00;0.00;;;;;;;;;;5075314;28;20199;-76
2022/11/14 05:11:55;;;;;;;0.00;0.00;;;;;;;;;;5074869;28;20317;-77
2022/11/14 05:14:25;;;;;;;0.00;0.00;;;;;;;;;;5074832;28;20241;-76
2022/11/14 05:16:53;;;;;;;0.00;0.00;;;;;;;;;;5075260;28;20697;-77
2022/11/14 05:19:22;;;;;;;0.00;0.00;;;;;;;;;;5074805;28;20309;-76
2022/11/14 05:21:50;;;;;;;0.00;0.00;;;;;;;;;;5081905;28;20221;-76
2022/11/14 05:24:19;;;;;;;0.00;0.00;;;;;;;;;;5095514;28;20252;-77
2022/11/14 05:26:47;;;;;;;0.00;0.00;;;;;;;;;;5095265;28;20251;-78
2022/11/14 05:29:16;;;;;;;0.00;0.00;;;;;;;;;;5095314;28;20224;-77
2022/11/14 05:31:46;;;;;;;0.00;0.00;;;;;;;;;;5095420;28;20221;-78
2022/11/14 05:34:14;;;;;;;0.00;0.00;;;;;;;;;;5082281;28;20206;-78
2022/11/14 05:36:43;;;;;;;0.00;0.00;;;;;;;;;;5074333;28;20298;-78
2022/11/14 05:39:11;;;;;;;0.00;0.00;;;;;;;;;;5074925;28;20269;-78
2022/11/14 05:41:39;;;;;;;0.00;0.00;;;;;;;;;;5075058;28;20312;-78
2022/11/14 05:44:08;;;;;;;0.00;0.00;;;;;;;;;;5075035;28;20238;-77
2022/11/14 05:46:37;;;;;;;0.00;0.00;;;;;;;;;;5074944;28;20255;-77
2022/11/14 05:49:07;;;;;;;0.00;0.00;;;;;;;;;;5074891;28;20202;-78
2022/11/14 05:51:35;;;;;;;0.00;0.00;;;;;;;;;;5074310;28;20632;-76
2022/11/14 05:54:04;;;;;;;0.00;0.00;;;;;;;;;;5082026;28;20289;-77
2022/11/14 05:56:32;;;;;;;0.00;0.00;;;;;;;;;;5092355;28;20638;-77
2022/11/14 05:59:00;;;;;;;0.00;0.00;;;;;;;;;;5074780;28;20264;-77
2022/11/14 06:01:29;;;;;;;0.00;0.00;;;;;;;;;;5077610;28;20229;-77
2022/11/14 06:03:58;;;;;;;0.00;0.00;;;;;;;;;;5094795;28;20711;-77
2022/11/14 06:06:27;;;;;;;0.00;0.00;;;;;;;;;;5094141;28;20608;-77
2022/11/14 06:08:56;;;;;;;0.00;0.00;;;;;;;;;;5080348;28;20247;-78
2022/11/14 06:11:25;;;;;;;0.00;0.00;;;;;;;;;;5080727;28;20230;-76
2022/11/14 06:13:53;;;;;;;0.00;0.00;;;;;;;;;;5095053;28;20260;-77
2022/11/14 06:16:22;;;;;;;0.00;0.00;;;;;;;;;;5073533;28;20256;-76
2022/11/14 06:18:53;;;;;;;0.00;0.00;;;;;;;;;;5074241;28;20690;-76
2022/11/14 06:21:22;;;;;;;0.00;0.00;;;;;;;;;;5074004;28;20186;-76
2022/11/14 06:23:52;;;;;;;0.00;0.00;;;;;;;;;;5078160;28;20233;-75
2022/11/14 06:26:22;;;;;;;0.00;0.00;;;;;;;;;;5094020;28;20241;-76
2022/11/14 06:28:51;;;;;;;0.00;0.00;;;;;;;;;;5087903;28;20273;-75
2022/11/14 06:31:20;;;;;;;0.00;0.00;;;;;;;;;;5074441;28;20201;-76
2022/11/14 06:33:49;;;;;;;0.00;0.00;;;;;;;;;;5083738;28;20252;-76
2022/11/14 06:36:18;;;;;;;0.00;0.00;;;;;;;;;;5094359;28;20209;-75
2022/11/14 06:38:46;;;;;;;0.00;0.00;;;;;;;;;;5094150;28;20715;-75
2022/11/14 06:41:17;;;;;;;0.00;0.00;;;;;;;;;;5094196;28;20618;-76
2022/11/14 06:43:46;;;;;;;0.00;0.00;;;;;;;;;;5093606;28;20192;-75
2022/11/14 06:46:15;;;;;;;0.00;0.00;;;;;;;;;;5093909;28;20295;-76
2022/11/14 06:48:44;;;;;;;0.00;0.00;;;;;;;;;;5094241;28;20320;-75
2022/11/14 06:51:13;;;;;;;0.00;0.00;;;;;;;;;;5093421;28;20212;-75
2022/11/14 06:53:42;;;;;;;0.00;0.00;;;;;;;;;;5094176;28;20370;-76
2022/11/14 06:56:11;;;;;;;0.00;0.00;;;;;;;;;;5094280;28;20205;-75
2022/11/14 06:58:42;;;;;;;0.00;0.00;;;;;;;;;;5093652;28;20239;-75
2022/11/14 07:01:12;;;;;;;0.00;0.00;;;;;;;;;;5093931;28;20239;-76
2022/11/14 07:03:40;;;;;;;0.00;0.00;;;;;;;;;;5093854;28;20260;-76
2022/11/14 07:06:10;;;;;;;0.00;0.00;;;;;;;;;;5096205;28;20622;-76
2022/11/14 07:08:38;;;;;;;0.00;0.00;;;;;;;;;;5085246;28;20625;-76
2022/11/14 07:11:08;;;;;;;0.00;0.00;;;;;;;;;;5077890;28;20213;-76
2022/11/14 07:13:37;;;;;;;0.00;0.00;;;;;;;;;;5077228;28;20257;-76
2022/11/14 07:16:07;;;;;;;0.00;0.00;;;;;;;;;;5077381;28;20246;-76
2022/11/14 07:18:36;;;;;;;0.00;0.00;;;;;;;;;;5076952;28;20244;-75
2022/11/14 07:21:05;;;;;;;0.00;0.00;;;;;;;;;;5076968;28;20244;-76
2022/11/14 07:23:34;;;;;;;0.00;0.00;;;;;;;;;;5078904;28;20261;-75
2022/11/14 07:26:04;;;;;;;0.00;0.00;;;;;;;;;;5097654;28;20265;-75
2022/11/14 07:28:32;;;;;;;0.00;0.00;;;;;;;;;;5097888;28;20205;-76
2022/11/14 07:31:03;;;;;;;0.00;0.00;;;;;;;;;;5098019;28;20205;-76
2022/11/14 07:33:33;;;;;;;0.00;0.00;;;;;;;;;;5097289;28;20312;-76
2022/11/14 07:36:01;;;;;;;0.00;0.00;;;;;;;;;;5096727;28;20663;-76
2022/11/14 07:38:31;;;;;;;0.00;0.00;;;;;;;;;;5097803;28;20198;-77
2022/11/14 07:41:00;;;;;;;0.00;0.00;;;;;;;;;;5097105;28;20224;-77
2022/11/14 07:43:29;;;;;;;0.00;0.00;;;;;;;;;;5097377;28;20625;-77
2022/11/14 07:46:00;;;;;;;0.00;0.00;;;;;;;;;;5097239;28;20205;-77
2022/11/14 07:48:28;;;;;;;0.00;0.00;;;;;;;;;;5097171;28;20616;-76
2022/11/14 07:51:00;;;;;;;0.00;0.00;;;;;;;;;;5094993;28;20198;-78
2022/11/14 07:53:28;;;;;;;0.00;0.00;;;;;;;;;;5078045;28;20280;-77
2022/11/14 07:55:57;;;;;;;0.00;0.00;;;;;;;;;;5096623;28;20198;-77
2022/11/14 07:58:25;;;;;;;0.00;0.00;;;;;;;;;;5086614;28;20301;-77
2022/11/14 08:00:54;;;;;;;0.00;0.00;;;;;;;;;;5077147;28;20608;-77
2022/11/14 08:03:23;;;;;;;0.00;0.00;;;;;;;;;;5076431;28;20361;-76
2022/11/14 08:05:51;;;;;;;0.00;0.00;;;;;;;;;;5076399;28;20252;-77
2022/11/14 08:08:21;;;;;;;0.00;0.00;;;;;;;;;;5076325;28;20234;-77
2022/11/14 08:10:49;;;;;;;0.00;0.00;;;;;;;;;;5076912;28;20199;-77
2022/11/14 08:13:18;;;;;;;0.00;0.00;;;;;;;;;;5076629;28;20312;-77
2022/11/14 08:16:04;;;;;;;0.00;0.00;;;;;;;;;;5076088;28;20677;-77
2022/11/14 08:18:40;;;;;;;0.00;0.00;;;;;;;;;;5075919;28;20232;-77
2022/11/14 08:21:09;;;;;;;0.00;0.00;;;;;;;;;;5076017;28;20226;-77
2022/11/14 08:23:39;;;;;;;0.00;0.00;;;;;;;;;;5076079;28;20241;-77
2022/11/14 08:26:07;;;;;;;0.00;0.00;;;;;;;;;;5076129;28;20249;-77
2022/11/14 08:28:36;;;;;;;0.00;0.00;;;;;;;;;;5076305;28;20285;-77
2022/11/14 08:31:05;;;;;;;0.00;0.00;;;;;;;;;;5076483;28;20293;-77
2022/11/14 08:33:33;;;;;;;0.00;0.00;;;;;;;;;;5080175;28;20250;-77
2022/11/14 08:36:02;;;;;;;0.00;0.00;;;;;;;;;;5095073;28;20292;-77
2022/11/14 08:38:31;;;;;;;0.00;0.00;;;;;;;;;;5089749;28;20570;-76
2022/11/14 08:41:02;;;;;;;0.00;0.00;;;;;;;;;;5075371;28;20215;-76
2022/11/14 08:43:31;;;;;;;0.00;0.00;;;;;;;;;;5076175;28;20537;-76
2022/11/14 08:46:00;;;;;;;0.00;0.00;;;;;;;;;;5090288;28;20289;-76
2022/11/14 08:48:29;;;;;;;0.00;0.00;;;;;;;;;;5096010;28;20244;-76
2022/11/14 08:50:59;;;;;;;0.00;0.00;;;;;;;;;;5081361;28;20222;-76
2022/11/14 08:53:27;;;;;;;0.00;0.00;;;;;;;;;;5078647;28;20219;-76
2022/11/14 08:55:56;;;;;;;0.00;0.00;;;;;;;;;;5094765;28;20260;-76
2022/11/14 08:58:27;;;;;;;0.00;0.00;;;;;;;;;;5096102;28;20202;-76
2022/11/14 09:01:00;;;;;;;0.00;0.00;;;;;;;;;;5095648;28;20255;-77
2022/11/14 09:03:28;;;;;;;0.00;0.00;;;;;;;;;;5095580;28;20218;-75
2022/11/14 09:05:57;;;;;;;0.00;0.00;;;;;;;;;;5095561;28;20611;-76
2022/11/14 09:08:25;;;;;;;0.00;0.00;;;;;;;;;;5096192;28;20229;-76
2022/11/14 09:10:54;;;;;;;0.00;0.00;;;;;;;;;;5095541;28;20205;-76
2022/11/14 09:13:23;;;;;;;0.00;0.00;;;;;;;;;;5095423;28;20263;-76
2022/11/14 09:15:53;;;;;;;0.00;0.00;;;;;;;;;;5095236;28;20670;-76
2022/11/14 09:18:21;;;;;;;0.00;0.00;;;;;;;;;;5095312;28;20629;-76
2022/11/14 09:20:50;;;;;;;0.00;0.00;;;;;;;;;;5095337;28;20260;-76
2022/11/14 09:23:18;;;;;;;0.00;0.00;;;;;;;;;;5095606;28;20275;-77
2022/11/14 09:25:48;;;;;;;0.00;0.00;;;;;;;;;;5095517;28;20549;-76
2022/11/14 09:28:16;;;;;;;0.00;0.00;;;;;;;;;;5094676;28;20571;-76
2022/11/14 09:30:45;;;;;;;0.00;0.00;;;;;;;;;;5095649;28;20724;-76
2022/11/14 09:33:14;;;;;;;0.00;0.00;;;;;;;;;;5095736;28;20254;-76
2022/11/14 09:35:43;;;;;;;0.00;0.00;;;;;;;;;;5095479;28;20288;-77
2022/11/14 09:38:12;;;;;;;0.00;0.00;;;;;;;;;;5095022;28;20231;-76
2022/11/14 09:40:47;;;;;;;0.00;0.00;;;;;;;;;;5095141;28;20218;-77
2022/11/14 09:43:29;;;;;;;0.00;0.00;;;;;;;;;;5095446;28;20229;-76
2022/11/14 09:45:58;;;;;;;0.00;0.00;;;;;;;;;;5095570;28;20649;-77
2022/11/14 09:48:29;;;;;;;0.00;0.00;;;;;;;;;;5095343;28;20202;-77
2022/11/14 09:51:08;;;;;;;0.00;0.00;;;;;;;;;;5095101;28;20592;-77
2022/11/14 09:53:40;;;;;;;0.00;0.00;;;;;;;;;;5093918;28;20257;-77
2022/11/14 09:56:12;;;;;;;0.00;0.00;;;;;;;;;;5094920;28;20228;-77
2022/11/14 09:58:42;;;;;;;0.00;0.00;;;;;;;;;;5094222;28;20225;-78
2022/11/14 10:01:13;;;;;;;24.63;18.20;;;;;;;;;;5094669;28;20249;-77
2022/11/14 10:03:50;;;;;;;23.30;17.67;;;;;;;;;;5094383;28;20294;-78
2022/11/14 10:06:27;;;;;;;21.03;18.00;;;;;;;;;;5095171;28;20185;-77
2022/11/14 10:09:03;;;;;;;22.90;17.87;;;;;;;;;;5094598;28;20182;-77
2022/11/14 10:11:35;;;;;;;23.80;19.20;;;;;;;;;;5094633;28;20177;-78
2022/11/14 10:14:09;;;;;;;21.27;17.87;;;;;;;;;;5094635;28;20647;-78
2022/11/14 10:16:42;;;;;;;21.10;17.97;;;;;;;;;;5094561;28;20189;-78
2022/11/14 10:19:19;;;;;;;21.40;18.20;;;;;;;;;;5095282;28;20228;-78
2022/11/14 10:21:55;;;;;;;22.40;18.00;;;;;;;;;;5094236;28;20275;-78
2022/11/14 10:24:37;;;;;;;22.57;18.40;;;;;;;;;;5095074;28;20241;-77
2022/11/14 10:27:06;;;;;;;20.53;17.27;;;;;;;;;;5094333;28;20197;-77
2022/11/14 10:29:41;;;;;;;22.73;18.23;;;;;;;;;;5095168;28;20293;-78
2022/11/14 10:32:15;;;;;;;21.10;17.90;;;;;;;;;;5094705;28;20680;-77
2022/11/14 10:34:47;;;;;;;22.53;18.30;;;;;;;;;;5094781;28;20218;-77
2022/11/14 10:37:19;;;;;;;21.87;18.33;;;;;;;;;;5094670;28;20233;-77
2022/11/14 10:39:50;;;;;;;23.57;19.17;;;;;;;;;;5096603;28;20234;-78
2022/11/14 10:42:23;;;;;;;23.10;17.73;;;;;;;;;;5098658;28;20257;-78
2022/11/14 10:44:55;;;;;;;23.07;18.53;;;;;;;;;;5098702;28;20217;-77
2022/11/14 10:47:25;;;;;;;22.73;18.97;;;;;;;;;;5098749;28;20194;-78
2022/11/14 10:49:56;;;;;;;22.20;18.40;;;;;;;;;;5097968;28;20245;-77
2022/11/14 10:52:31;;;;;;;23.70;18.20;;;;;;;;;;5097859;28;20245;-77
2022/11/14 10:55:00;;;;;;;21.97;18.07;;;;;;;;;;5098161;28;20217;-77
2022/11/14 10:57:29;;;;;;;23.83;18.63;;;;;;;;;;5099089;28;20726;-77
2022/11/14 10:59:57;;;;;;;22.80;18.30;;;;;;;;;;5097841;28;20241;-77
2022/11/14 11:02:26;;;;;;;21.67;17.80;;;;;;;;;;5098291;28;20750;-77
2022/11/14 11:05:05;;;;;;;22.30;18.00;;;;;;;;;;5097879;28;20642;-77
2022/11/14 11:13:49;;;;;;;23.30;17.67;;;;;;;;;;5097542;28;20228;-77
2022/11/14 11:16:20;;;;;;;20.93;18.07;;;;;;;;;;5098211;28;20239;-77
2022/11/14 11:18:49;;;;;;;22.70;19.17;;;;;;;;;;5097420;28;20198;-77
2022/11/14 11:21:20;;;;;;;24.10;18.77;;;;;;;;;;5098093;28;20585;-77
2022/11/14 11:23:49;;;;;;;23.57;18.33;;;;;;;;;;5097942;28;20178;-77
2022/11/14 11:26:23;;;;;;;21.53;18.03;;;;;;;;;;5098362;28;20214;-78
2022/11/14 11:29:02;;;;;;;21.83;17.57;;;;;;;;;;5097880;28;20700;-78
2022/11/14 11:31:49;;;;;;;21.73;18.13;;;;;;;;;;5098275;28;20221;-77
2022/11/14 11:34:20;;;;;;;21.10;17.20;;;;;;;;;;5098276;28;20229;-77
2022/11/14 11:36:52;;;;;;;22.10;18.63;;;;;;;;;;5097424;28;20237;-77
2022/11/14 11:39:23;;;;;;;21.80;17.77;;;;;;;;;;5097970;28;20186;-78
2022/11/14 11:41:53;;;;;;;20.93;16.87;;;;;;;;;;5097631;28;20630;-78
2022/11/14 11:44:41;;;;;;;21.13;17.27;;;;;;;;;;5097359;28;20186;-77
2022/11/14 11:47:12;;;;;;;20.97;16.87;;;;;;;;;;5097320;28;20232;-77
2022/11/14 11:49:43;;;;;;;20.30;17.00;;;;;;;;;;5096994;28;20213;-78
2022/11/14 11:52:27;;;;;;;21.30;17.90;;;;;;;;;;5096003;28;20866;-75
2022/11/14 11:55:00;;;;;;;22.07;17.57;;;;;;;;;;5096331;28;20239;-77
2022/11/14 11:57:31;;;;;;;23.07;18.00;;;;;;;;;;5096874;28;20187;-77
2022/11/14 12:00:03;;;;;;;21.47;17.27;;;;;;;;;;5096578;28;20571;-77
2022/11/14 12:02:32;;;;;;;22.20;17.60;;;;;;;;;;5096713;28;20287;-78
2022/11/14 12:05:01;;;;;;;19.43;16.57;;;;;;;;;;5097193;28;20198;-77
2022/11/14 12:07:38;;;;;;;23.33;18.30;;;;;;;;;;5097330;28;20182;-77
2022/11/14 12:10:12;;;;;;;22.23;18.00;;;;;;;;;;5097432;28;20234;-77
2022/11/14 12:12:52;;;;;;;20.93;17.27;;;;;;;;;;5096778;28;20218;-77
2022/11/14 12:15:24;;;;;;;20.77;17.30;;;;;;;;;;5096869;28;20209;-77
2022/11/14 12:18:20;;;;;;;21.47;17.90;;;;;;;;;;5096651;28;20214;-77
2022/11/14 12:20:56;;;;;;;21.03;17.53;;;;;;;;;;5060720;28;20218;-77
2022/11/14 12:23:44;;;;;;;21.00;17.07;;;;;;;;;;5096866;28;20720;-77
2022/11/14 12:26:21;;;;;;;23.83;17.90;;;;;;;;;;5096333;28;20292;-78
2022/11/14 12:28:59;;;;;;;21.20;17.47;;;;;;;;;;5096609;28;20265;-78
2022/11/14 12:31:28;;;;;;;20.80;18.30;;;;;;;;;;5096780;28;20296;-77
2022/11/14 12:33:59;;;;;;;21.10;17.57;;;;;;;;;;5097125;28;20577;-76
2022/11/14 12:36:29;;;;;;;21.23;17.93;;;;;;;;;;5096720;28;20227;-77
2022/11/14 12:38:59;;;;;;;24.83;19.10;;;;;;;;;;5097122;28;20209;-77
2022/11/14 12:41:29;;;;;;;20.80;17.40;;;;;;;;;;5097102;28;20266;-77
2022/11/14 12:44:13;;;;;;;21.97;18.87;;;;;;;;;;5096569;28;20236;-76
2022/11/14 12:46:56;;;;;;;21.30;18.20;;;;;;;;;;5096796;28;20731;-77
2022/11/14 12:49:38;;;;;;;20.87;17.23;;;;;;;;;;5084885;28;20238;-77
2022/11/14 12:52:27;;;;;;;21.67;17.00;;;;;;;;;;5096937;28;20253;-77
2022/11/14 12:54:55;;;;;;;20.93;17.53;;;;;;;;;;5095865;28;20709;-78
2022/11/14 12:57:47;;;;;;;22.27;17.73;;;;;;;;;;5096528;28;20744;-77
2022/11/14 13:00:16;;;;;;;20.77;17.47;;;;;;;;;;5096913;28;20610;-77
2022/11/14 13:02:50;;;;;;;21.70;17.37;;;;;;;;;;5096152;28;20312;-77
2022/11/14 13:05:34;;;;;;;21.37;17.67;;;;;;;;;;5096672;28;20682;-77
2022/11/14 13:08:10;;;;;;;20.87;17.10;;;;;;;;;;5096781;28;20189;-77
2022/11/14 13:10:39;;;;;;;20.70;16.73;;;;;;;;;;5095448;28;20211;-77
2022/11/14 13:22:19;;;;;;;18.43;15.43;;;;;;;;;;5095775;28;20230;-77
2022/11/14 13:25:06;;;;;;;19.90;15.60;;;;;;;;;;5096352;28;20666;-77
2022/11/14 13:27:35;;;;;;;17.63;15.30;;;;;;;;;;5095039;28;20206;-77
2022/11/14 13:30:38;;;;;;;19.70;15.47;;;;;;;;;;5095412;28;20230;-77
2022/11/14 13:33:08;;;;;;;18.43;16.03;;;;;;;;;;5095268;28;20264;-77
2022/11/14 13:35:49;;;;;;;20.23;16.20;;;;;;;;;;5095726;28;20621;-77
2022/11/14 13:38:32;;;;;;;19.00;16.13;;;;;;;;;;5095398;28;20217;-77
2022/11/14 13:41:06;;;;;;;17.30;15.23;;;;;;;;;;5094418;28;20221;-77
2022/11/14 13:43:45;;;;;;;18.83;16.20;;;;;;;;;;5094681;28;20249;-77
2022/11/14 13:46:19;;;;;;;20.37;16.37;;;;;;;;;;5095035;28;20181;-76
2022/11/14 13:49:03;;;;;;;19.60;16.50;;;;;;;;;;5095005;28;20280;-77
2022/11/14 13:51:33;;;;;;;19.97;17.27;;;;;;;;;;5094599;28;20276;-77
2022/11/14 13:54:12;;;;;;;20.53;17.17;;;;;;;;;;5095317;28;20278;-77
2022/11/14 13:56:55;;;;;;;19.93;16.50;;;;;;;;;;5094940;28;20189;-77
2022/11/14 13:59:45;;;;;;;33.20;27.90;;;;;;;;;;5094003;28;20243;-76
2022/11/14 14:02:19;;;;;;;21.97;17.37;;;;;;;;;;5093720;28;20278;-76
2022/11/14 14:04:53;;;;;;;21.73;18.30;;;;;;;;;;5093458;28;20250;-77
2022/11/14 14:07:27;;;;;;;21.60;18.07;;;;;;;;;;5093551;28;20219;-75
2022/11/14 14:10:00;;;;;;;23.00;20.50;;;;;;;;;;5093961;28;20634;-77
2022/11/14 14:12:37;;;;;;;20.43;17.90;;;;;;;;;;5093213;28;20386;-77
2022/11/14 14:15:18;;;;;;;22.67;18.43;;;;;;;;;;5093441;28;20229;-76
2022/11/14 14:17:51;;;;;;;21.03;17.70;;;;;;;;;;5093009;28;20597;-76
2022/11/14 14:20:27;;;;;;;25.77;17.90;;;;;;;;;;5093124;28;20296;-77
2022/11/14 14:22:59;;;;;;;24.40;18.57;;;;;;;;;;5093036;28;20316;-76
2022/11/14 14:25:32;;;;;;;23.23;18.97;;;;;;;;;;5093624;28;20228;-75
2022/11/14 14:28:04;;;;;;;23.87;19.30;;;;;;;;;;5093378;28;20224;-76
2022/11/14 14:30:33;;;;;;;22.97;17.87;;;;;;;;;;5092973;28;20197;-77
2022/11/14 14:33:10;;;;;;;22.03;18.07;;;;;;;;;;5092926;28;20312;-76
2022/11/14 14:35:50;;;;;;;21.20;18.30;;;;;;;;;;5092460;28;20236;-76
2022/11/14 14:38:25;;;;;;;25.40;19.67;;;;;;;;;;5091747;28;20186;-76
2022/11/14 14:40:56;;;;;;;22.23;18.90;;;;;;;;;;5091261;28;20284;-76
2022/11/14 14:43:26;;;;;;;21.57;18.63;;;;;;;;;;5072545;28;20316;-76
2022/11/14 14:45:54;;;;;;;23.03;19.97;;;;;;;;;;5072849;28;20203;-77
2022/11/14 14:48:24;;;;;;;21.87;18.07;;;;;;;;;;5072227;28;20296;-76
2022/11/14 14:50:55;;;;;;;22.57;18.67;;;;;;;;;;5072262;28;20617;-77
2022/11/14 14:53:24;;;;;;;21.47;17.97;;;;;;;;;;5072209;28;20225;-76
2022/11/14 14:55:54;;;;;;;22.20;17.67;;;;;;;;;;5072570;28;20566;-76
2022/11/14 14:58:26;;;;;;;22.47;17.83;;;;;;;;;;5072399;28;20234;-76
2022/11/14 15:00:56;;;;;;;20.50;17.03;;;;;;;;;;5072545;28;20237;-76
2022/11/14 15:03:26;;;;;;;24.60;18.77;;;;;;;;;;5073014;28;20633;-76
2022/11/14 15:06:00;;;;;;;22.53;17.80;;;;;;;;;;5072877;28;20663;-77
2022/11/14 15:08:29;;;;;;;21.17;17.50;;;;;;;;;;5072939;28;20551;-76
2022/11/14 15:11:00;;;;;;;22.30;18.43;;;;;;;;;;5071905;28;20211;-77